Sunday, February 17, 2019, 3:02 PM EST
Back to Local

KSFM, Sanford, Sanford Regional Airport

Location: Sanford, ME, United States Lat: 43.4
Local Time: 3:02 PM EST (20:02 GMT) Lon: -70.717
Time Zone: US/Eastern Elev: 242 ft

Show me the last for .
Show Coded

Time T Td Feel RH Dir Speed Gust Alt SLP Vis Weather Sky Remarks
2019-02-17 13:56 32 10 27 39 230° 5 - 30.05 30.07 10 CLR None
2019-02-17 12:56 30 8 24 38 270° 6 - 30.07 30.09 10 CLR 6-hr Min Temp (1pm): 8.1°F
6-hr Max Temp (1pm): 30.9°F
2019-02-17 11:56 28 8 - 42 - Calm - 30.09 30.11 10 CLR None
2019-02-17 10:56 25 9 19 49 10° 5 - 30.11 30.13 10 CLR None
2019-02-17 09:56 23 8 18 52 40° 3 - 30.12 30.14 10 CLR None
2019-02-17 08:56 21 8 16 56 350° 3 - 30.12 30.14 10 CLR None
2019-02-17 07:56 18 7 - 61 - Calm - 30.09 30.11 10 CLR None
2019-02-17 06:56 8 5 - 86 - Calm - 30.07 30.09 10 CLR 6-hr Min Temp (7am): 8.1°F
6-hr Max Temp (7am): 21.0°F
2019-02-17 05:56 12 8 6 83 290° 3 - 30.05 30.07 10 CLR None
2019-02-17 04:56 18 8 11 64 300° 5 - 30.02 30.04 10 CLR None
2019-02-17 03:56 17 9 9 69 280° 6 - 30.01 30.03 10 CLR None
2019-02-17 02:56 19 10 12 67 270° 5 - 30.01 30.03 10 CLR None
2019-02-17 01:56 20 10 11 64 290° 7 - 30.00 30.01 10 CLR None
2019-02-17 00:56 21 11 12 64 330° 7 - 29.99 30.00 10 CLR 6-hr Min Temp (1am): 21.0°F
6-hr Max Temp (1am): 30.9°F
2019-02-16 23:56 22 11 14 62 300° 6 - 29.98 29.99 10 CLR None
2019-02-16 22:56 24 12 14 59 300° 9 - 29.95 29.97 10 CLR 24-hr Min Temp (11pm): 24.1°F
24-hr Max Temp (11pm): 39.9°F
2019-02-16 21:56 27 13 17 54 310° 10 - 29.94 29.96 10 CLR None
2019-02-16 20:56 28 16 22 60 310° 6 - 29.91 29.92 10 CLR None
2019-02-16 19:56 30 17 22 58 280° 9 - 29.88 29.90 10 CLR None
2019-02-16 18:56 31 18 23 58 290° 8 - 29.86 29.88 10 CLR 6-hr Min Temp (7pm): 30.9°F
6-hr Max Temp (7pm): 37.0°F
2019-02-16 17:56 32 19 26 58 270° 7 - 29.83 29.85 10 CLR None
2019-02-16 16:56 34 19 22 53 300° 10 21 29.80 29.81 10 CLR None
2019-02-16 15:56 35 19 22 51 290° 21 29 29.77 29.78 10 CLR None

Support USWX by starting your Amazon purchase here.